Time;durP1;ratioP1;P1;durP2;ratioP2;P2;SDS_P1;SDS_P2;PMS_P1;PMS_P2;Temp;Humidity;BMP_temperature;BMP_pressure;BME280_temperature;BME280_humidity;BME280_pressure;Samples;Min_cycle;Max_cycle;Signal;HPM_P1;HPM_P2
2022/08/26 00:02:02;;;;;;;23.77;18.42;;;21.10;99.90;;;;;;5082962;28;20113;-78
2022/08/26 00:04:28;;;;;;;35.20;22.77;;;21.20;99.90;;;;;;5097904;28;20421;-76
2022/08/26 00:06:55;;;;;;;28.63;21.85;;;21.20;99.90;;;;;;5085974;28;20679;-77
2022/08/26 00:09:21;;;;;;;27.30;21.02;;;21.10;99.90;;;;;;5070489;28;20086;-77
2022/08/26 00:11:47;;;;;;;26.45;20.63;;;21.10;99.90;;;;;;5066229;28;20487;-76
2022/08/26 00:14:14;;;;;;;28.67;19.27;;;21.10;99.90;;;;;;5088618;28;20046;-76
2022/08/26 00:16:39;;;;;;;31.00;22.63;;;21.10;99.90;;;;;;5067943;28;20078;-76
2022/08/26 00:19:05;;;;;;;28.40;20.08;;;20.90;99.90;;;;;;5067261;28;20052;-75
2022/08/26 00:21:31;;;;;;;32.53;20.45;;;21.00;99.90;;;;;;5084733;28;20561;-77
2022/08/26 00:23:56;;;;;;;27.50;18.98;;;21.00;99.90;;;;;;5092224;28;20047;-76
2022/08/26 00:26:22;;;;;;;29.38;19.10;;;20.90;99.90;;;;;;5066945;28;20123;-76
2022/08/26 00:28:48;;;;;;;25.80;19.63;;;20.90;99.90;;;;;;5079521;28;20032;-76
2022/08/26 00:31:15;;;;;;;29.35;18.45;;;20.90;99.90;;;;;;5058221;28;20506;-76
2022/08/26 00:33:40;;;;;;;21.92;17.50;;;20.80;99.90;;;;;;5070417;28;20092;-76
2022/08/26 00:36:07;;;;;;;31.30;18.60;;;20.90;99.90;;;;;;5085234;28;20139;-75
2022/08/26 00:38:35;;;;;;;21.63;15.70;;;20.80;99.90;;;;;;5085941;28;20052;-76
2022/08/26 00:41:01;;;;;;;24.25;16.95;;;20.80;99.90;;;;;;5083084;28;20046;-76
2022/08/26 00:43:31;;;;;;;44.03;20.17;;;20.90;99.90;;;;;;5082378;28;20094;-76
2022/08/26 00:46:03;;;;;;;33.20;17.25;;;20.90;99.90;;;;;;5094813;28;20058;-76
2022/08/26 00:48:31;;;;;;;22.83;16.65;;;20.80;99.90;;;;;;5087200;28;20094;-76
2022/08/26 00:51:01;;;;;;;28.38;16.42;;;20.80;99.90;;;;;;5085380;28;20044;-76
2022/08/26 00:53:33;;;;;;;28.77;18.77;;;20.80;99.90;;;;;;5089444;28;20438;-76
2022/08/26 00:56:04;;;;;;;20.88;16.98;;;20.90;99.90;;;;;;5080787;28;20403;-75
2022/08/26 00:58:32;;;;;;;34.58;17.63;;;20.80;99.90;;;;;;5075862;28;20040;-76
2022/08/26 01:00:58;;;;;;;22.48;15.02;;;20.80;99.90;;;;;;5066898;28;20037;-75
2022/08/26 01:03:26;;;;;;;21.75;14.80;;;20.80;99.90;;;;;;5110915;27;20396;-76
2022/08/26 01:05:58;;;;;;;22.13;13.73;;;20.90;99.90;;;;;;5078370;28;20615;-75
2022/08/26 01:08:24;;;;;;;24.75;15.15;;;20.80;99.90;;;;;;5077206;28;20380;-76
2022/08/26 01:10:51;;;;;;;23.13;12.98;;;20.70;99.90;;;;;;5086572;28;20059;-76
2022/08/26 01:13:17;;;;;;;20.77;12.25;;;20.60;99.90;;;;;;5097320;28;20498;-77
2022/08/26 01:15:46;;;;;;;19.67;11.32;;;20.70;99.90;;;;;;5086811;28;20177;-77
2022/08/26 01:18:13;;;;;;;20.25;11.95;;;20.60;99.90;;;;;;5100034;28;20052;-77
2022/08/26 01:20:54;;;;;;;21.33;11.38;;;20.70;99.90;;;;;;5065405;28;21029;-77
2022/08/26 01:23:20;;;;;;;24.80;11.80;;;20.70;99.90;;;;;;5082092;28;20086;-77
2022/08/26 01:25:53;;;;;;;27.95;12.10;;;20.60;99.90;;;;;;5080106;28;20395;-78
2022/08/26 01:28:24;;;;;;;21.63;12.20;;;20.60;99.90;;;;;;5077482;28;20036;-77
2022/08/26 01:30:52;;;;;;;21.00;10.75;;;20.70;99.90;;;;;;5077281;28;20040;-78
2022/08/26 01:33:23;;;;;;;21.52;11.40;;;20.60;99.90;;;;;;5093072;28;20065;-78
2022/08/26 01:35:49;;;;;;;25.38;11.50;;;20.60;99.90;;;;;;5075219;28;20051;-77
2022/08/26 01:38:15;;;;;;;16.88;12.10;;;20.50;99.90;;;;;;5065203;28;20044;-77
2022/08/26 01:40:43;;;;;;;16.85;10.27;;;20.50;99.90;;;;;;5076688;28;20127;-77
2022/08/26 01:43:15;;;;;;;17.70;9.43;;;20.50;99.90;;;;;;5096440;28;20089;-77
2022/08/26 01:45:42;;;;;;;16.77;10.75;;;20.50;99.90;;;;;;5069238;28;20049;-77
2022/08/26 01:48:14;;;;;;;16.67;10.52;;;20.60;99.90;;;;;;5068549;28;20491;-76
2022/08/26 01:50:41;;;;;;;20.58;11.50;;;20.60;99.90;;;;;;5066743;28;20043;-77
2022/08/26 01:53:09;;;;;;;22.13;11.88;;;20.50;99.90;;;;;;5070896;28;20044;-77
2022/08/26 01:55:39;;;;;;;22.92;13.63;;;20.50;99.90;;;;;;5095911;28;20043;-76
2022/08/26 01:58:11;;;;;;;21.50;11.55;;;20.50;99.90;;;;;;5083565;28;20048;-77
2022/08/26 02:00:37;;;;;;;23.70;11.18;;;20.50;99.90;;;;;;5074885;28;20044;-76
2022/08/26 02:03:17;;;;;;;17.52;9.90;;;20.50;99.90;;;;;;5075301;28;20044;-78
2022/08/26 02:05:53;;;;;;;30.23;11.80;;;20.60;99.90;;;;;;5086617;28;20047;-77
2022/08/26 02:08:24;;;;;;;23.10;10.48;;;20.40;99.90;;;;;;5084844;28;20036;-78
2022/08/26 02:10:49;;;;;;;18.05;11.30;;;20.40;99.90;;;;;;5083437;28;20056;-77
2022/08/26 02:13:15;;;;;;;21.23;10.98;;;20.50;99.90;;;;;;5114805;27;20059;-78
2022/08/26 02:15:43;;;;;;;19.67;10.48;;;20.50;99.90;;;;;;5066699;28;20491;-77
2022/08/26 02:18:10;;;;;;;18.50;9.75;;;20.40;99.90;;;;;;5104855;28;20048;-78
2022/08/26 02:20:35;;;;;;;20.58;9.35;;;20.40;99.90;;;;;;5085796;28;20478;-79
2022/08/26 02:23:01;;;;;;;17.63;10.05;;;20.40;99.90;;;;;;5072605;28;20069;-79
2022/08/26 02:25:33;;;;;;;18.13;9.65;;;20.40;99.90;;;;;;5078947;28;20090;-78
2022/08/26 02:27:59;;;;;;;25.60;10.18;;;20.40;99.90;;;;;;5083137;28;20546;-78
2022/08/26 02:30:31;;;;;;;17.70;8.77;;;20.40;99.90;;;;;;5076778;28;20048;-79
2022/08/26 02:33:04;;;;;;;17.02;8.98;;;20.40;99.90;;;;;;5069612;28;20048;-78
2022/08/26 02:35:32;;;;;;;21.23;8.55;;;20.30;99.90;;;;;;5078399;28;20043;-77
2022/08/26 02:37:59;;;;;;;22.55;8.77;;;20.30;99.90;;;;;;5072067;28;20040;-78
2022/08/26 02:40:30;;;;;;;19.23;8.88;;;20.40;99.90;;;;;;5069082;28;20078;-78
2022/08/26 02:42:56;;;;;;;16.52;7.80;;;20.40;99.90;;;;;;5071332;28;20068;-78
2022/08/26 02:45:22;;;;;;;15.35;8.82;;;20.40;99.90;;;;;;5088001;28;20040;-78
2022/08/26 02:47:49;;;;;;;24.95;10.52;;;20.30;99.90;;;;;;5080317;28;20426;-78
2022/08/26 02:50:15;;;;;;;19.58;9.07;;;20.30;99.90;;;;;;5108393;28;20077;-78
2022/08/26 02:52:41;;;;;;;15.20;8.82;;;20.30;99.90;;;;;;5105958;28;20481;-78
2022/08/26 02:55:06;;;;;;;19.60;8.48;;;20.30;99.90;;;;;;5088139;28;20048;-79
2022/08/26 02:57:33;;;;;;;18.60;9.77;;;20.40;99.90;;;;;;5088910;28;20035;-77
2022/08/26 03:00:00;;;;;;;16.67;7.88;;;20.40;99.90;;;;;;5086225;28;20434;-77
2022/08/26 03:02:27;;;;;;;16.23;7.55;;;20.40;99.90;;;;;;5068026;28;20048;-78
2022/08/26 03:04:53;;;;;;;12.35;6.82;;;20.40;99.90;;;;;;5069331;28;20056;-78
2022/08/26 03:07:19;;;;;;;15.20;6.97;;;20.40;99.90;;;;;;5066443;28;20048;-77
2022/08/26 03:09:45;;;;;;;15.30;8.52;;;20.40;99.90;;;;;;5094095;28;20446;-78
2022/08/26 03:12:11;;;;;;;14.00;6.75;;;20.30;99.90;;;;;;5090201;28;20060;-77
2022/08/26 03:14:37;;;;;;;11.18;5.25;;;20.40;99.90;;;;;;5085195;28;20093;-78
2022/08/26 03:17:03;;;;;;;12.90;5.30;;;20.30;99.90;;;;;;5085942;28;20093;-78
2022/08/26 03:19:30;;;;;;;16.55;5.15;;;20.30;99.90;;;;;;5088693;28;20402;-78
2022/08/26 03:21:57;;;;;;;11.38;4.95;;;20.30;99.90;;;;;;5096399;28;20097;-77
2022/08/26 03:24:23;;;;;;;13.10;3.88;;;20.20;99.90;;;;;;5102785;28;20405;-77
2022/08/26 03:26:48;;;;;;;12.35;4.30;;;20.30;99.90;;;;;;5076082;28;20040;-78
2022/08/26 03:31:59;;;;;;;28.33;5.70;;;20.20;99.90;;;;;;5097410;28;20048;-78
2022/08/26 03:34:24;;;;;;;11.35;3.88;;;20.20;99.90;;;;;;5107428;28;20287;-78
2022/08/26 03:36:51;;;;;;;14.20;3.65;;;20.10;99.90;;;;;;5089656;28;20036;-77
2022/08/26 03:39:17;;;;;;;9.20;3.78;;;20.20;99.90;;;;;;5067457;28;20158;-76
2022/08/26 03:41:43;;;;;;;11.43;4.57;;;20.20;99.90;;;;;;5085381;28;20131;-76
2022/08/26 03:44:10;;;;;;;16.73;4.65;;;20.20;99.90;;;;;;5095461;28;20036;-78
2022/08/26 03:46:36;;;;;;;16.58;6.97;;;20.10;99.90;;;;;;5103049;28;20564;-76
2022/08/26 03:49:04;;;;;;;15.80;5.65;;;20.20;99.90;;;;;;5085904;28;20090;-77
2022/08/26 03:51:30;;;;;;;11.23;3.72;;;20.10;99.90;;;;;;5083789;28;20088;-77
2022/08/26 03:53:57;;;;;;;15.90;4.85;;;20.10;99.90;;;;;;5086098;28;20051;-77
2022/08/26 03:56:23;;;;;;;17.08;4.70;;;20.10;99.90;;;;;;5085151;28;20115;-76
2022/08/26 03:58:49;;;;;;;10.32;5.00;;;20.10;99.90;;;;;;5075167;28;20132;-76
2022/08/26 04:01:15;;;;;;;21.05;6.38;;;20.00;99.90;;;;;;5069637;28;20452;-77
2022/08/26 04:03:59;;;;;;;15.93;4.85;;;20.20;99.90;;;;;;5107336;28;20054;-76
2022/08/26 04:06:37;;;;;;;15.50;4.93;;;20.20;99.90;;;;;;5108375;28;21264;-76
2022/08/26 04:09:07;;;;;;;19.10;5.10;;;20.10;99.90;;;;;;5103737;28;20039;-77
2022/08/26 04:11:34;;;;;;;14.93;4.88;;;20.20;99.90;;;;;;5078367;28;20101;-77
2022/08/26 04:14:03;;;;;;;12.40;5.50;;;20.20;99.90;;;;;;5084883;28;20047;-77
2022/08/26 04:16:29;;;;;;;13.18;5.18;;;20.10;99.90;;;;;;5086083;28;20124;-78
2022/08/26 04:18:56;;;;;;;13.32;4.53;;;20.20;99.90;;;;;;5067573;28;20139;-77
2022/08/26 04:21:23;;;;;;;17.20;4.60;;;20.20;99.90;;;;;;5067235;28;20044;-77
2022/08/26 04:23:49;;;;;;;16.45;5.90;;;20.20;99.90;;;;;;5066720;28;20071;-77
2022/08/26 04:26:18;;;;;;;16.02;4.07;;;20.00;99.90;;;;;;5076301;28;20040;-77
2022/08/26 04:28:44;;;;;;;19.13;4.95;;;20.00;99.90;;;;;;5085843;28;20105;-77
2022/08/26 04:31:13;;;;;;;10.73;3.83;;;20.00;99.90;;;;;;5086540;28;20044;-76
2022/08/26 04:33:39;;;;;;;10.45;3.80;;;20.00;99.90;;;;;;5077551;28;20147;-76
2022/08/26 04:36:05;;;;;;;14.27;4.20;;;20.20;99.90;;;;;;5067910;28;20036;-77
2022/08/26 04:38:31;;;;;;;15.82;4.05;;;20.10;99.90;;;;;;5069690;28;20555;-77
2022/08/26 04:40:57;;;;;;;14.52;4.75;;;20.10;99.90;;;;;;5084738;28;20469;-77
2022/08/26 04:43:29;;;;;;;14.93;3.90;;;20.00;99.90;;;;;;5072200;28;20076;-76
2022/08/26 04:46:02;;;;;;;10.35;2.70;;;20.10;99.90;;;;;;5069847;28;20069;-77
2022/08/26 04:48:30;;;;;;;17.63;5.38;;;19.90;99.90;;;;;;5095670;28;20083;-76
2022/08/26 04:50:56;;;;;;;18.23;4.53;;;20.10;99.90;;;;;;5085256;28;20066;-76
2022/08/26 04:53:22;;;;;;;10.90;2.70;;;20.10;99.90;;;;;;5083342;28;20457;-75
2022/08/26 04:55:48;;;;;;;7.28;2.35;;;20.00;99.90;;;;;;5083403;28;20487;-76
2022/08/26 04:58:16;;;;;;;12.90;3.90;;;19.90;99.90;;;;;;5067430;28;20047;-77
2022/08/26 05:00:43;;;;;;;13.30;3.60;;;20.10;99.90;;;;;;5066398;28;20540;-77
2022/08/26 05:03:09;;;;;;;13.20;4.22;;;20.00;99.90;;;;;;5071327;28;20036;-75
2022/08/26 05:05:38;;;;;;;15.00;2.55;;;20.00;99.90;;;;;;5090679;28;20044;-75
2022/08/26 05:08:04;;;;;;;13.10;4.63;;;20.00;99.90;;;;;;5081016;28;20041;-76
2022/08/26 05:10:29;;;;;;;12.73;3.88;;;20.00;99.90;;;;;;5082092;28;20491;-75
2022/08/26 05:12:59;;;;;;;17.10;2.70;;;20.00;99.90;;;;;;5066736;28;20170;-76
2022/08/26 05:15:24;;;;;;;11.80;2.13;;;20.00;99.90;;;;;;5079500;28;20288;-76
2022/08/26 05:17:50;;;;;;;12.85;3.22;;;20.10;99.90;;;;;;5071751;28;20406;-75
2022/08/26 05:20:16;;;;;;;13.20;3.15;;;20.10;99.90;;;;;;5083746;28;20044;-76
2022/08/26 05:22:42;;;;;;;15.52;3.75;;;20.00;99.90;;;;;;5084139;28;20048;-75
2022/08/26 05:25:08;;;;;;;14.00;3.35;;;20.10;99.90;;;;;;5079790;28;20625;-75
2022/08/26 05:27:33;;;;;;;16.00;4.55;;;20.00;99.90;;;;;;5116821;27;20060;-76
2022/08/26 05:29:59;;;;;;;8.20;2.65;;;20.00;99.90;;;;;;5086607;28;20512;-76
2022/08/26 05:32:26;;;;;;;14.50;3.53;;;20.20;99.90;;;;;;5068857;28;20082;-76
2022/08/26 05:34:55;;;;;;;9.57;3.00;;;20.10;99.90;;;;;;5078719;28;20051;-76
2022/08/26 05:37:21;;;;;;;9.00;3.63;;;20.10;99.90;;;;;;5080290;28;20040;-76
2022/08/26 05:39:47;;;;;;;12.35;3.20;;;20.10;99.90;;;;;;5083546;28;20044;-76
2022/08/26 05:42:12;;;;;;;7.72;2.42;;;20.10;99.90;;;;;;5084679;28;20070;-76
2022/08/26 05:44:38;;;;;;;13.52;4.05;;;20.10;99.90;;;;;;5083985;28;20085;-76
2022/08/26 05:47:04;;;;;;;8.93;2.83;;;20.00;99.90;;;;;;5085903;28;20082;-77
2022/08/26 05:49:30;;;;;;;12.45;3.78;;;19.90;99.90;;;;;;5087520;28;20494;-77
2022/08/26 05:51:55;;;;;;;13.02;3.33;;;19.90;99.90;;;;;;5064541;28;20044;-73
2022/08/26 05:54:21;;;;;;;17.45;3.97;;;20.00;99.90;;;;;;5070879;28;20036;-76
2022/08/26 05:56:47;;;;;;;10.82;3.00;;;20.00;99.90;;;;;;5067999;28;20048;-77
2022/08/26 05:59:14;;;;;;;15.23;2.65;;;20.00;99.90;;;;;;5048945;28;20045;-77
2022/08/26 06:01:41;;;;;;;11.93;2.83;;;19.90;99.90;;;;;;5067257;28;20491;-77
2022/08/26 06:04:07;;;;;;;10.38;2.58;;;20.00;99.90;;;;;;5062163;28;20080;-77
2022/08/26 06:06:34;;;;;;;9.35;3.08;;;19.90;99.90;;;;;;5078618;28;20043;-77
2022/08/26 06:09:02;;;;;;;12.70;3.70;;;19.90;99.90;;;;;;5116121;27;20467;-77
2022/08/26 06:11:30;;;;;;;13.68;3.53;;;19.90;99.90;;;;;;5084024;28;20567;-77
2022/08/26 06:14:00;;;;;;;8.73;2.83;;;19.90;99.90;;;;;;5085573;28;20071;-77
2022/08/26 06:16:27;;;;;;;7.40;2.70;;;19.90;99.90;;;;;;5075961;28;20381;-77
2022/08/26 06:18:53;;;;;;;10.35;2.60;;;19.80;99.90;;;;;;5077966;28;20043;-77
2022/08/26 06:21:26;;;;;;;9.07;2.25;;;19.80;99.90;;;;;;5076108;28;20878;-78
2022/08/26 06:26:41;;;;;;;19.35;3.42;;;19.90;99.90;;;;;;5085834;28;20542;-78
2022/08/26 06:29:07;;;;;;;7.80;1.70;;;19.90;99.90;;;;;;5078242;28;20935;-77
2022/08/26 06:31:35;;;;;;;11.82;2.25;;;20.00;99.90;;;;;;5086619;28;20059;-77
2022/08/26 06:34:05;;;;;;;8.93;2.03;;;20.00;99.90;;;;;;5077387;28;20423;-77
2022/08/26 06:36:34;;;;;;;13.10;3.50;;;19.90;99.90;;;;;;5104825;28;20063;-77
2022/08/26 06:39:08;;;;;;;8.80;2.85;;;20.00;99.90;;;;;;5077806;28;20067;-77
2022/08/26 06:41:35;;;;;;;9.60;2.33;;;19.90;99.90;;;;;;5082990;28;20044;-77
2022/08/26 06:44:03;;;;;;;11.13;2.60;;;19.90;99.90;;;;;;5083184;28;20032;-77
2022/08/26 06:46:29;;;;;;;11.43;3.40;;;19.90;99.90;;;;;;5084433;28;20041;-76
2022/08/26 06:48:57;;;;;;;9.70;2.03;;;19.80;99.90;;;;;;5087963;28;20040;-78
2022/08/26 06:51:29;;;;;;;7.30;2.05;;;19.70;99.90;;;;;;5111782;28;20155;-77
2022/08/26 06:53:58;;;;;;;13.45;2.67;;;19.80;99.90;;;;;;5094363;28;20052;-77
2022/08/26 06:56:27;;;;;;;11.60;3.28;;;19.70;99.90;;;;;;5082792;28;20047;-76
2022/08/26 06:58:53;;;;;;;6.78;2.35;;;19.80;99.90;;;;;;5078595;28;20048;-76
2022/08/26 07:01:25;;;;;;;12.48;3.15;;;19.80;99.90;;;;;;5071743;28;20040;-77
2022/08/26 07:03:53;;;;;;;7.95;2.25;;;19.70;99.90;;;;;;5054412;28;20046;-78
2022/08/26 07:06:19;;;;;;;9.50;2.72;;;19.70;99.90;;;;;;5064322;28;20068;-78
2022/08/26 07:08:50;;;;;;;8.00;2.55;;;19.80;99.90;;;;;;5069263;28;20047;-80
2022/08/26 07:11:17;;;;;;;14.68;2.58;;;19.90;99.90;;;;;;5071311;28;20091;-79
2022/08/26 07:13:44;;;;;;;12.07;4.28;;;19.80;99.90;;;;;;5071040;28;20514;-80
2022/08/26 07:16:12;;;;;;;13.38;3.13;;;19.80;99.90;;;;;;5089656;28;20400;-79
2022/08/26 07:18:39;;;;;;;10.25;2.08;;;19.80;99.90;;;;;;5107089;28;20097;-77
2022/08/26 07:21:08;;;;;;;8.85;1.65;;;19.70;99.90;;;;;;5081694;28;20041;-75
2022/08/26 07:23:35;;;;;;;7.75;1.88;;;19.90;99.90;;;;;;5067668;28;20045;-76
2022/08/26 07:26:06;;;;;;;12.10;2.22;;;19.80;99.90;;;;;;5074973;28;20075;-77
2022/08/26 07:28:31;;;;;;;18.40;3.90;;;19.80;99.90;;;;;;5080243;28;20182;-75
2022/08/26 07:30:57;;;;;;;11.63;1.73;;;19.80;99.90;;;;;;5085539;28;20069;-74
2022/08/26 07:33:23;;;;;;;16.73;3.45;;;19.80;99.90;;;;;;5068875;28;20044;-75
2022/08/26 07:35:49;;;;;;;9.52;2.35;;;19.70;99.90;;;;;;5086053;28;20051;-73
2022/08/26 07:38:14;;;;;;;10.38;2.80;;;19.60;99.90;;;;;;5086034;28;20068;-76
2022/08/26 07:40:40;;;;;;;9.00;2.08;;;19.70;99.90;;;;;;5085072;28;20051;-74
2022/08/26 07:43:08;;;;;;;8.93;1.27;;;19.70;99.90;;;;;;5075001;28;20041;-76
2022/08/26 07:45:33;;;;;;;7.68;1.45;;;19.90;99.90;;;;;;5086629;28;20051;-76
2022/08/26 07:47:59;;;;;;;10.95;2.33;;;20.00;99.90;;;;;;5085730;28;20584;-76
2022/08/26 07:50:25;;;;;;;14.23;1.27;;;20.00;99.90;;;;;;5084387;28;20040;-76
2022/08/26 07:52:51;;;;;;;13.13;2.88;;;19.90;99.90;;;;;;5092312;28;20260;-75
2022/08/26 07:55:17;;;;;;;15.00;2.70;;;20.00;99.90;;;;;;5076150;28;20082;-76
2022/08/26 07:57:43;;;;;;;7.57;1.42;;;20.00;99.90;;;;;;5086944;28;20341;-76
2022/08/26 08:00:14;;;;;;;9.77;2.25;;;20.10;99.90;;;;;;5086444;28;20078;-76
2022/08/26 08:02:43;;;;;;;10.05;1.63;;;20.20;99.90;;;;;;5085567;28;20041;-75
2022/08/26 08:05:11;;;;;;;20.13;3.78;;;20.20;99.90;;;;;;5067584;28;20047;-74
2022/08/26 08:07:37;;;;;;;10.68;1.50;;;20.20;99.90;;;;;;5069511;28;20175;-75
2022/08/26 08:10:04;;;;;;;13.40;2.28;;;20.00;99.90;;;;;;5078802;28;20467;-75
2022/08/26 08:12:30;;;;;;;9.07;2.70;;;20.00;99.90;;;;;;5089201;28;20052;-74
2022/08/26 08:14:55;;;;;;;7.15;2.08;;;19.90;99.90;;;;;;5068048;28;20040;-74
2022/08/26 08:17:21;;;;;;;9.60;1.92;;;20.00;99.90;;;;;;5083504;28;20044;-73
2022/08/26 08:19:46;;;;;;;12.65;1.45;;;19.90;99.90;;;;;;5087401;28;20047;-73
2022/08/26 08:22:12;;;;;;;8.45;1.85;;;20.00;99.90;;;;;;5088846;28;20052;-75
2022/08/26 08:24:38;;;;;;;10.70;1.95;;;20.00;99.90;;;;;;5064292;28;20045;-74
2022/08/26 08:27:04;;;;;;;10.20;2.10;;;20.10;99.90;;;;;;5079274;28;20482;-75
2022/08/26 08:29:29;;;;;;;9.98;2.15;;;20.00;99.90;;;;;;5085030;28;20028;-74
2022/08/26 08:31:56;;;;;;;17.38;3.45;;;20.10;99.90;;;;;;5098162;28;20040;-75
2022/08/26 08:34:27;;;;;;;8.93;1.70;;;20.00;99.90;;;;;;5075340;28;20033;-75
2022/08/26 08:36:53;;;;;;;7.40;1.20;;;20.10;99.90;;;;;;5065831;28;20082;-75
2022/08/26 08:39:20;;;;;;;6.32;1.25;;;20.00;99.90;;;;;;5084723;28;20050;-74
2022/08/26 08:42:30;;;;;;;7.10;1.60;;;20.10;99.90;;;;;;5095197;28;20375;-74
2022/08/26 08:45:00;;;;;;;6.72;1.35;;;20.10;99.90;;;;;;5035247;28;20062;-74
2022/08/26 08:47:34;;;;;;;10.40;1.83;;;20.10;99.90;;;;;;5067227;28;20399;-76
2022/08/26 08:50:09;;;;;;;9.88;1.63;;;20.00;99.90;;;;;;5084379;28;20052;-76
2022/08/26 08:52:35;;;;;;;5.15;1.23;;;20.10;99.90;;;;;;5081995;28;20233;-75
2022/08/26 08:55:05;;;;;;;8.20;2.55;;;20.00;99.90;;;;;;5084684;28;20059;-77
2022/08/26 08:57:39;;;;;;;5.20;1.38;;;20.10;99.90;;;;;;5085385;28;20550;-76
2022/08/26 09:00:12;;;;;;;11.18;1.42;;;20.10;99.90;;;;;;5065376;28;20040;-74
2022/08/26 09:03:22;;;;;;;10.38;1.90;;;20.10;99.90;;;;;;5068796;28;20055;-78
2022/08/26 09:05:51;;;;;;;14.05;2.85;;;20.30;99.90;;;;;;5096977;28;20094;-77
2022/08/26 09:08:23;;;;;;;9.52;2.75;;;20.30;99.90;;;;;;5083619;28;20045;-81
2022/08/26 09:11:06;;;;;;;10.48;1.73;;;20.10;99.90;;;;;;5065968;28;20052;-78
2022/08/26 09:13:33;;;;;;;8.05;1.40;;;20.10;99.90;;;;;;5067888;28;20124;-78
2022/08/26 09:15:58;;;;;;;9.25;2.35;;;20.20;99.90;;;;;;5077972;28;20433;-79
2022/08/26 09:18:52;;;;;;;9.98;3.25;;;20.20;99.90;;;;;;5064001;28;20059;-78
2022/08/26 09:21:22;;;;;;;11.88;1.55;;;20.20;99.90;;;;;;5071143;28;20368;-79
2022/08/26 09:23:49;;;;;;;7.03;0.87;;;20.10;99.90;;;;;;5078446;28;20464;-79
2022/08/26 09:26:24;;;;;;;10.80;1.80;;;20.00;99.90;;;;;;5082922;28;20036;-78
2022/08/26 09:28:59;;;;;;;7.68;2.22;;;20.10;99.90;;;;;;5071948;28;20037;-78
2022/08/26 09:31:34;;;;;;;9.90;2.13;;;20.10;99.90;;;;;;5072777;28;20045;-79
2022/08/26 09:34:20;;;;;;;15.73;2.10;;;20.20;99.90;;;;;;5085169;28;20048;-78
2022/08/26 09:36:47;;;;;;;11.15;1.23;;;20.20;99.90;;;;;;5082401;28;20070;-76
2022/08/26 09:39:30;;;;;;;8.63;0.95;;;20.10;99.90;;;;;;5065680;28;20087;-76
2022/08/26 09:42:10;;;;;;;8.38;1.63;;;20.20;99.90;;;;;;5080918;28;20063;-76
2022/08/26 09:44:54;;;;;;;;;;;20.00;99.90;;;;;;5103731;28;20040;-77
2022/08/26 09:47:35;;;;;;;8.85;1.55;;;20.00;99.90;;;;;;5084415;28;19920;-76
2022/08/26 09:50:10;;;;;;;9.20;3.22;;;20.00;99.90;;;;;;5064720;28;20449;-78
2022/08/26 09:52:36;;;;;;;5.82;1.45;;;19.90;99.90;;;;;;5083048;28;20048;-78
2022/08/26 09:55:11;;;;;;;6.35;1.55;;;20.00;99.90;;;;;;5106741;28;20039;-78
2022/08/26 09:57:52;;;;;;;11.50;3.60;;;20.00;99.90;;;;;;5067152;28;20052;-83
2022/08/26 10:00:30;;;;;;;12.18;2.85;;;20.00;99.90;;;;;;5078170;28;20037;-82
2022/08/26 10:03:01;;;;;;;7.15;1.30;;;19.90;99.90;;;;;;5089470;28;20045;-82
2022/08/26 10:05:53;;;;;;;7.97;1.52;;;19.90;99.90;;;;;;5069580;28;20032;-81
2022/08/26 10:08:30;;;;;;;10.75;1.98;;;20.00;99.90;;;;;;5079996;28;20036;-82
2022/08/26 10:10:58;;;;;;;4.93;1.08;;;20.10;99.90;;;;;;5067305;28;20070;-82
2022/08/26 10:13:30;;;;;;;5.15;1.23;;;20.20;99.90;;;;;;5074287;28;20423;-82
2022/08/26 10:16:17;;;;;;;6.47;1.25;;;20.20;99.90;;;;;;5081378;28;20039;-83
2022/08/26 10:18:59;;;;;;;7.97;2.65;;;20.20;99.90;;;;;;5104411;27;20511;-82
2022/08/26 10:21:37;;;;;;;4.78;1.52;;;20.20;99.90;;;;;;5073987;28;20094;-80
2022/08/26 10:24:06;;;;;;;8.43;1.02;;;20.30;99.90;;;;;;5065505;28;20044;-79
2022/08/26 10:26:54;;;;;;;5.28;1.17;;;20.30;99.90;;;;;;5073277;28;20042;-79
2022/08/26 10:29:44;;;;;;;8.88;1.00;;;20.20;99.90;;;;;;5089624;28;20050;-78
2022/08/26 10:32:36;;;;;;;6.22;1.55;;;20.00;99.90;;;;;;5083261;28;20123;-78
2022/08/26 10:35:03;;;;;;;7.40;2.03;;;20.00;99.90;;;;;;5066857;28;20048;-79
2022/08/26 10:37:38;;;;;;;8.85;1.67;;;20.00;99.90;;;;;;5083052;28;20351;-79
2022/08/26 10:40:12;;;;;;;5.45;0.80;;;19.90;99.90;;;;;;5076294;28;20043;-79
2022/08/26 10:42:53;;;;;;;8.95;1.58;;;19.90;99.90;;;;;;5098895;28;20044;-79
2022/08/26 10:45:24;;;;;;;11.30;1.17;;;19.90;99.90;;;;;;5082685;28;20040;-79
2022/08/26 10:47:58;;;;;;;11.77;1.17;;;19.80;99.90;;;;;;5085175;28;20494;-78
2022/08/26 10:50:31;;;;;;;9.85;2.03;;;19.90;99.90;;;;;;5077681;28;20058;-79
2022/08/26 10:53:19;;;;;;;7.88;1.20;;;19.90;99.90;;;;;;5068202;28;20070;-79
2022/08/26 10:56:08;;;;;;;8.38;1.90;;;19.90;99.90;;;;;;5101434;27;20575;-79
2022/08/26 10:58:53;;;;;;;9.43;1.67;;;20.00;99.90;;;;;;5070052;28;20044;-78
2022/08/26 11:01:45;;;;;;;4.38;1.33;;;19.90;99.90;;;;;;5115640;27;20059;-78
2022/08/26 11:04:36;;;;;;;6.43;1.55;;;20.00;99.90;;;;;;5087452;28;20044;-78
2022/08/26 11:07:41;;;;;;;5.03;1.10;;;20.00;99.90;;;;;;5084615;28;20258;-80
2022/08/26 11:10:17;;;;;;;5.78;1.60;;;20.10;99.90;;;;;;5086415;28;20048;-80
2022/08/26 11:12:46;;;;;;;6.38;1.20;;;20.10;99.90;;;;;;5064069;28;20049;-78
2022/08/26 11:15:18;;;;;;;5.13;1.15;;;20.10;99.90;;;;;;5070801;28;20051;-79
2022/08/26 11:17:43;;;;;;;5.47;1.77;;;20.10;99.90;;;;;;5098501;28;20040;-78
2022/08/26 11:20:16;;;;;;;4.28;1.10;;;20.10;99.90;;;;;;5069460;28;20086;-77
2022/08/26 11:22:43;;;;;;;7.90;1.00;;;20.10;99.90;;;;;;5075863;28;20048;-78
2022/08/26 11:25:13;;;;;;;9.20;1.20;;;20.20;99.90;;;;;;5086547;28;20119;-79
2022/08/26 11:27:40;;;;;;;6.60;1.65;;;20.20;99.90;;;;;;5087071;28;20422;-78
2022/08/26 11:30:11;;;;;;;9.02;1.17;;;20.30;99.90;;;;;;5085765;28;20063;-77
2022/08/26 11:32:37;;;;;;;16.08;2.78;;;20.10;99.90;;;;;;5085737;28;20466;-79
2022/08/26 11:35:18;;;;;;;5.70;1.17;;;20.30;99.90;;;;;;5086437;28;20044;-79
2022/08/26 11:37:47;;;;;;;5.38;0.93;;;20.40;99.90;;;;;;5086327;28;20048;-79
2022/08/26 11:40:23;;;;;;;5.53;1.73;;;20.10;99.90;;;;;;5072234;28;20036;-80
2022/08/26 11:42:56;;;;;;;8.32;1.33;;;20.00;99.90;;;;;;5083390;28;20562;-80
2022/08/26 11:45:27;;;;;;;10.70;1.33;;;20.00;99.90;;;;;;5070091;28;20028;-80
2022/08/26 11:47:56;;;;;;;5.50;1.38;;;20.10;99.90;;;;;;5088896;28;20048;-80
2022/08/26 11:50:24;;;;;;;5.50;1.60;;;20.40;99.90;;;;;;5083367;28;20050;-78
2022/08/26 11:53:03;;;;;;;13.77;1.73;;;20.10;99.90;;;;;;5102334;27;20051;-78
2022/08/26 11:55:32;;;;;;;5.90;1.13;;;20.10;99.90;;;;;;5067576;28;20082;-79
2022/08/26 11:58:00;;;;;;;6.93;2.25;;;20.00;99.90;;;;;;5075838;28;20048;-77
2022/08/26 12:00:49;;;;;;;7.78;1.40;;;19.90;99.90;;;;;;5086866;28;20084;-78
2022/08/26 12:03:19;;;;;;;13.20;1.38;;;20.10;99.90;;;;;;5118275;27;20406;-77
2022/08/26 12:05:48;;;;;;;6.97;1.00;;;20.10;99.90;;;;;;5068430;28;20044;-78
2022/08/26 12:08:20;;;;;;;4.40;1.42;;;20.20;99.90;;;;;;5084074;28;20105;-78
2022/08/26 12:10:47;;;;;;;3.55;0.73;;;20.20;99.90;;;;;;5085786;28;20349;-78
2022/08/26 12:13:24;;;;;;;6.78;1.17;;;20.00;99.90;;;;;;5103176;28;20044;-78
2022/08/26 12:15:56;;;;;;;3.47;0.95;;;19.90;99.90;;;;;;5106031;28;20043;-78
2022/08/26 12:18:29;;;;;;;5.32;0.70;;;19.90;99.90;;;;;;5100542;28;20186;-78
2022/08/26 12:20:57;;;;;;;6.95;1.88;;;19.90;99.90;;;;;;5065527;28;20063;-79
2022/08/26 12:23:35;;;;;;;7.63;1.17;;;19.90;99.90;;;;;;5095038;28;20515;-76
2022/08/26 12:26:25;;;;;;;5.43;0.70;;;19.90;99.90;;;;;;5066438;28;20044;-77
2022/08/26 12:28:53;;;;;;;9.02;1.17;;;19.70;99.90;;;;;;5066372;28;20037;-78
2022/08/26 12:31:26;;;;;;;9.02;1.30;;;19.60;99.90;;;;;;5066675;28;20166;-78
2022/08/26 12:33:53;;;;;;;8.10;1.10;;;19.60;99.90;;;;;;5069690;28;20036;-77
2022/08/26 12:36:58;;;;;;;6.38;1.52;;;19.50;99.90;;;;;;5065754;28;20487;-78
2022/08/26 12:39:27;;;;;;;9.45;1.67;;;19.50;99.90;;;;;;5098980;28;20051;-77
2022/08/26 12:42:17;;;;;;;10.70;1.50;;;19.60;99.90;;;;;;5080618;28;20063;-77
2022/08/26 12:44:45;;;;;;;8.88;2.65;;;19.50;99.90;;;;;;5073633;28;20408;-76
2022/08/26 12:47:21;;;;;;;7.43;1.25;;;19.70;99.90;;;;;;5083885;28;20406;-76
2022/08/26 12:49:56;;;;;;;7.38;1.20;;;19.60;99.90;;;;;;5083263;28;20040;-76
2022/08/26 12:52:30;;;;;;;4.85;1.33;;;19.60;99.90;;;;;;5076729;28;20035;-75
2022/08/26 12:55:03;;;;;;;8.68;1.45;;;19.70;99.90;;;;;;5081861;28;20083;-79
2022/08/26 12:57:34;;;;;;;4.30;1.30;;;19.70;99.90;;;;;;5080344;28;20050;-77
2022/08/26 13:00:24;;;;;;;8.25;1.80;;;19.70;99.90;;;;;;5068144;28;20131;-78